sensor_id;sensor_type;location;lat;lon;timestamp;temperature;humidity
37268;DHT22;23154;52.542;13.362;2022-09-03T00:05:09;14.60;99.90
37268;DHT22;23154;52.542;13.362;2022-09-03T00:08:29;14.70;99.90
37268;DHT22;23154;52.542;13.362;2022-09-03T00:13:27;14.60;99.90
37268;DHT22;23154;52.542;13.362;2022-09-03T00:15:56;14.50;99.90
37268;DHT22;23154;52.542;13.362;2022-09-03T00:18:26;14.50;99.90
37268;DHT22;23154;52.542;13.362;2022-09-03T00:20:55;14.60;99.90
37268;DHT22;23154;52.542;13.362;2022-09-03T00:23:26;14.60;99.90
37268;DHT22;23154;52.542;13.362;2022-09-03T00:26:01;14.50;99.90
37268;DHT22;23154;52.542;13.362;2022-09-03T00:28:44;14.50;99.90
37268;DHT22;23154;52.542;13.362;2022-09-03T00:31:24;14.40;99.90
37268;DHT22;23154;52.542;13.362;2022-09-03T00:33:56;14.40;99.90
37268;DHT22;23154;52.542;13.362;2022-09-03T00:36:27;14.30;99.90
37268;DHT22;23154;52.542;13.362;2022-09-03T00:38:57;14.30;99.90
37268;DHT22;23154;52.542;13.362;2022-09-03T00:41:35;14.30;99.90
37268;DHT22;23154;52.542;13.362;2022-09-03T00:44:26;14.40;99.90
37268;DHT22;23154;52.542;13.362;2022-09-03T00:47:38;14.30;99.90
37268;DHT22;23154;52.542;13.362;2022-09-03T00:50:25;14.30;99.90
37268;DHT22;23154;52.542;13.362;2022-09-03T00:56:26;14.20;99.90
37268;DHT22;23154;52.542;13.362;2022-09-03T01:02:16;14.30;99.90
37268;DHT22;23154;52.542;13.362;2022-09-03T01:07:28;14.00;99.90
37268;DHT22;23154;52.542;13.362;2022-09-03T01:13:09;13.90;99.90
37268;DHT22;23154;52.542;13.362;2022-09-03T01:18:28;13.70;99.90
37268;DHT22;23154;52.542;13.362;2022-09-03T01:27:13;13.80;99.90
37268;DHT22;23154;52.542;13.362;2022-09-03T01:45:53;13.60;99.90
37268;DHT22;23154;52.542;13.362;2022-09-03T01:48:41;13.60;99.90
37268;DHT22;23154;52.542;13.362;2022-09-03T01:51:19;13.60;99.90
37268;DHT22;23154;52.542;13.362;2022-09-03T01:54:12;13.60;99.90
37268;DHT22;23154;52.542;13.362;2022-09-03T01:59:26;13.60;99.90
37268;DHT22;23154;52.542;13.362;2022-09-03T02:02:10;13.60;99.90
37268;DHT22;23154;52.542;13.362;2022-09-03T02:04:38;13.60;99.90
37268;DHT22;23154;52.542;13.362;2022-09-03T02:07:04;13.50;99.90
37268;DHT22;23154;52.542;13.362;2022-09-03T02:09:30;13.40;99.90
37268;DHT22;23154;52.542;13.362;2022-09-03T02:12:07;13.40;99.90
37268;DHT22;23154;52.542;13.362;2022-09-03T02:14:33;13.40;99.90
37268;DHT22;23154;52.542;13.362;2022-09-03T02:17:00;13.30;99.90
37268;DHT22;23154;52.542;13.362;2022-09-03T02:19:27;13.30;99.90
37268;DHT22;23154;52.542;13.362;2022-09-03T02:21:56;13.30;99.90
37268;DHT22;23154;52.542;13.362;2022-09-03T02:24:23;13.40;99.90
37268;DHT22;23154;52.542;13.362;2022-09-03T02:26:51;13.40;99.90
37268;DHT22;23154;52.542;13.362;2022-09-03T02:29:17;13.30;99.90
37268;DHT22;23154;52.542;13.362;2022-09-03T02:31:44;13.20;99.90
37268;DHT22;23154;52.542;13.362;2022-09-03T02:34:09;13.10;99.90
37268;DHT22;23154;52.542;13.362;2022-09-03T02:36:41;13.20;99.90
37268;DHT22;23154;52.542;13.362;2022-09-03T02:39:07;13.30;99.90
37268;DHT22;23154;52.542;13.362;2022-09-03T02:41:33;13.30;99.90
37268;DHT22;23154;52.542;13.362;2022-09-03T02:44:08;13.20;99.90
37268;DHT22;23154;52.542;13.362;2022-09-03T02:46:49;13.30;99.90
37268;DHT22;23154;52.542;13.362;2022-09-03T02:49:16;13.20;99.90
37268;DHT22;23154;52.542;13.362;2022-09-03T02:51:43;13.30;99.90
37268;DHT22;23154;52.542;13.362;2022-09-03T02:54:10;13.20;99.90
37268;DHT22;23154;52.542;13.362;2022-09-03T02:56:36;13.10;99.90
37268;DHT22;23154;52.542;13.362;2022-09-03T02:59:03;13.00;99.90
37268;DHT22;23154;52.542;13.362;2022-09-03T03:01:29;13.00;99.90
37268;DHT22;23154;52.542;13.362;2022-09-03T03:03:54;13.00;99.90
37268;DHT22;23154;52.542;13.362;2022-09-03T03:06:20;12.90;99.90
37268;DHT22;23154;52.542;13.362;2022-09-03T03:08:47;13.00;99.90
37268;DHT22;23154;52.542;13.362;2022-09-03T03:11:13;12.90;99.90
37268;DHT22;23154;52.542;13.362;2022-09-03T03:13:43;12.90;99.90
37268;DHT22;23154;52.542;13.362;2022-09-03T03:16:09;12.80;99.90
37268;DHT22;23154;52.542;13.362;2022-09-03T03:18:34;12.80;99.90
37268;DHT22;23154;52.542;13.362;2022-09-03T03:21:05;12.80;99.90
37268;DHT22;23154;52.542;13.362;2022-09-03T03:23:32;12.80;99.90
37268;DHT22;23154;52.542;13.362;2022-09-03T03:26:04;12.70;99.90
37268;DHT22;23154;52.542;13.362;2022-09-03T03:28:31;12.70;99.90
37268;DHT22;23154;52.542;13.362;2022-09-03T03:31:03;12.70;99.90
37268;DHT22;23154;52.542;13.362;2022-09-03T03:33:29;12.50;99.90
37268;DHT22;23154;52.542;13.362;2022-09-03T03:35:55;12.60;99.90
37268;DHT22;23154;52.542;13.362;2022-09-03T03:38:20;12.60;99.90
37268;DHT22;23154;52.542;13.362;2022-09-03T03:40:46;12.60;99.90
37268;DHT22;23154;52.542;13.362;2022-09-03T03:43:11;12.60;99.90
37268;DHT22;23154;52.542;13.362;2022-09-03T03:45:37;12.50;99.90
37268;DHT22;23154;52.542;13.362;2022-09-03T03:48:02;12.50;99.90
37268;DHT22;23154;52.542;13.362;2022-09-03T03:50:28;12.50;99.90
37268;DHT22;23154;52.542;13.362;2022-09-03T03:52:53;12.40;99.90
37268;DHT22;23154;52.542;13.362;2022-09-03T03:55:19;12.50;99.90
37268;DHT22;23154;52.542;13.362;2022-09-03T03:57:45;12.50;99.90
37268;DHT22;23154;52.542;13.362;2022-09-03T04:00:11;12.50;99.90
37268;DHT22;23154;52.542;13.362;2022-09-03T04:02:36;12.60;99.90
37268;DHT22;23154;52.542;13.362;2022-09-03T04:05:02;12.60;99.90
37268;DHT22;23154;52.542;13.362;2022-09-03T04:07:27;12.70;99.90
37268;DHT22;23154;52.542;13.362;2022-09-03T04:09:53;12.70;99.90
37268;DHT22;23154;52.542;13.362;2022-09-03T04:12:19;12.70;99.90
37268;DHT22;23154;52.542;13.362;2022-09-03T04:14:44;12.70;99.90
37268;DHT22;23154;52.542;13.362;2022-09-03T04:17:10;12.70;99.90
37268;DHT22;23154;52.542;13.362;2022-09-03T04:19:35;12.80;99.90
37268;DHT22;23154;52.542;13.362;2022-09-03T04:22:02;12.80;99.90
37268;DHT22;23154;52.542;13.362;2022-09-03T04:24:28;12.80;99.90
37268;DHT22;23154;52.542;13.362;2022-09-03T04:26:54;12.80;99.90
37268;DHT22;23154;52.542;13.362;2022-09-03T04:29:19;12.80;99.90
37268;DHT22;23154;52.542;13.362;2022-09-03T04:31:46;12.70;99.90
37268;DHT22;23154;52.542;13.362;2022-09-03T04:34:31;12.80;99.90
37268;DHT22;23154;52.542;13.362;2022-09-03T04:36:56;12.80;99.90
37268;DHT22;23154;52.542;13.362;2022-09-03T04:39:25;12.80;99.90
37268;DHT22;23154;52.542;13.362;2022-09-03T04:41:50;12.80;99.90
37268;DHT22;23154;52.542;13.362;2022-09-03T04:44:16;12.80;99.90
37268;DHT22;23154;52.542;13.362;2022-09-03T04:46:41;12.80;99.90
37268;DHT22;23154;52.542;13.362;2022-09-03T04:49:07;12.80;99.90
37268;DHT22;23154;52.542;13.362;2022-09-03T04:51:34;12.70;99.90
37268;DHT22;23154;52.542;13.362;2022-09-03T04:54:02;12.70;99.90
37268;DHT22;23154;52.542;13.362;2022-09-03T04:56:34;12.80;99.90
37268;DHT22;23154;52.542;13.362;2022-09-03T04:59:02;12.90;99.90
37268;DHT22;23154;52.542;13.362;2022-09-03T05:01:30;13.00;99.90
37268;DHT22;23154;52.542;13.362;2022-09-03T05:03:56;13.00;99.90
37268;DHT22;23154;52.542;13.362;2022-09-03T05:06:22;13.00;99.90
37268;DHT22;23154;52.542;13.362;2022-09-03T05:08:49;13.00;99.90
37268;DHT22;23154;52.542;13.362;2022-09-03T05:11:15;13.20;99.90
37268;DHT22;23154;52.542;13.362;2022-09-03T05:13:42;13.20;99.90
37268;DHT22;23154;52.542;13.362;2022-09-03T05:16:09;13.20;99.90
37268;DHT22;23154;52.542;13.362;2022-09-03T05:18:36;13.20;99.90
37268;DHT22;23154;52.542;13.362;2022-09-03T05:21:15;13.20;99.90
37268;DHT22;23154;52.542;13.362;2022-09-03T05:23:44;13.20;99.90
37268;DHT22;23154;52.542;13.362;2022-09-03T05:26:13;13.10;99.90
37268;DHT22;23154;52.542;13.362;2022-09-03T05:28:41;13.20;99.90
37268;DHT22;23154;52.542;13.362;2022-09-03T05:31:12;13.10;99.90
37268;DHT22;23154;52.542;13.362;2022-09-03T05:33:45;13.10;99.90
37268;DHT22;23154;52.542;13.362;2022-09-03T05:36:21;13.10;99.90
37268;DHT22;23154;52.542;13.362;2022-09-03T05:38:48;13.20;99.90
37268;DHT22;23154;52.542;13.362;2022-09-03T05:41:16;13.20;99.90
37268;DHT22;23154;52.542;13.362;2022-09-03T05:43:42;13.20;99.90
37268;DHT22;23154;52.542;13.362;2022-09-03T05:46:12;13.20;99.90
37268;DHT22;23154;52.542;13.362;2022-09-03T05:48:39;13.20;99.90
37268;DHT22;23154;52.542;13.362;2022-09-03T05:51:09;13.20;99.90
37268;DHT22;23154;52.542;13.362;2022-09-03T05:53:37;13.20;99.90
37268;DHT22;23154;52.542;13.362;2022-09-03T05:56:06;13.30;99.90
37268;DHT22;23154;52.542;13.362;2022-09-03T05:58:37;13.40;99.90
37268;DHT22;23154;52.542;13.362;2022-09-03T06:01:18;13.50;99.90
37268;DHT22;23154;52.542;13.362;2022-09-03T06:03:46;13.50;99.90
37268;DHT22;23154;52.542;13.362;2022-09-03T06:06:13;13.50;99.90
37268;DHT22;23154;52.542;13.362;2022-09-03T06:08:40;13.60;99.90
37268;DHT22;23154;52.542;13.362;2022-09-03T06:11:07;13.60;99.90
37268;DHT22;23154;52.542;13.362;2022-09-03T06:13:33;13.70;99.90
37268;DHT22;23154;52.542;13.362;2022-09-03T06:16:00;13.80;99.90
37268;DHT22;23154;52.542;13.362;2022-09-03T06:18:27;13.90;99.90
37268;DHT22;23154;52.542;13.362;2022-09-03T06:20:57;13.90;99.90
37268;DHT22;23154;52.542;13.362;2022-09-03T06:23:23;14.00;99.90
37268;DHT22;23154;52.542;13.362;2022-09-03T06:25:59;14.10;99.90
37268;DHT22;23154;52.542;13.362;2022-09-03T06:28:25;14.30;99.90
37268;DHT22;23154;52.542;13.362;2022-09-03T06:30:52;14.40;99.90
37268;DHT22;23154;52.542;13.362;2022-09-03T06:33:17;14.50;99.90
37268;DHT22;23154;52.542;13.362;2022-09-03T06:35:43;14.40;99.90
37268;DHT22;23154;52.542;13.362;2022-09-03T06:38:09;14.40;99.90
37268;DHT22;23154;52.542;13.362;2022-09-03T06:40:39;14.40;99.90
37268;DHT22;23154;52.542;13.362;2022-09-03T06:43:05;14.60;99.90
37268;DHT22;23154;52.542;13.362;2022-09-03T06:45:30;14.60;99.90
37268;DHT22;23154;52.542;13.362;2022-09-03T06:47:56;14.70;99.90
37268;DHT22;23154;52.542;13.362;2022-09-03T06:50:22;14.90;99.90
37268;DHT22;23154;52.542;13.362;2022-09-03T06:52:52;15.10;99.90
37268;DHT22;23154;52.542;13.362;2022-09-03T06:55:20;15.10;99.90
37268;DHT22;23154;52.542;13.362;2022-09-03T06:57:47;15.20;99.90
37268;DHT22;23154;52.542;13.362;2022-09-03T07:00:13;15.30;99.90
37268;DHT22;23154;52.542;13.362;2022-09-03T07:02:39;15.50;99.90
37268;DHT22;23154;52.542;13.362;2022-09-03T07:05:06;15.50;99.90
37268;DHT22;23154;52.542;13.362;2022-09-03T07:07:32;15.30;99.90
37268;DHT22;23154;52.542;13.362;2022-09-03T07:09:58;15.30;99.90
37268;DHT22;23154;52.542;13.362;2022-09-03T07:12:23;15.50;99.90
37268;DHT22;23154;52.542;13.362;2022-09-03T07:14:49;15.40;99.90
37268;DHT22;23154;52.542;13.362;2022-09-03T07:17:15;15.50;99.90
37268;DHT22;23154;52.542;13.362;2022-09-03T07:19:40;15.90;99.90
37268;DHT22;23154;52.542;13.362;2022-09-03T07:22:06;15.90;99.90
37268;DHT22;23154;52.542;13.362;2022-09-03T07:24:34;16.00;99.90
37268;DHT22;23154;52.542;13.362;2022-09-03T07:27:02;16.10;99.90
37268;DHT22;23154;52.542;13.362;2022-09-03T07:29:27;16.20;99.90
37268;DHT22;23154;52.542;13.362;2022-09-03T07:31:53;16.10;99.90
37268;DHT22;23154;52.542;13.362;2022-09-03T07:34:20;16.30;99.90
37268;DHT22;23154;52.542;13.362;2022-09-03T07:36:48;16.20;99.90
37268;DHT22;23154;52.542;13.362;2022-09-03T07:39:16;16.40;99.90
37268;DHT22;23154;52.542;13.362;2022-09-03T07:41:43;16.50;99.90
37268;DHT22;23154;52.542;13.362;2022-09-03T07:44:14;16.50;99.90
37268;DHT22;23154;52.542;13.362;2022-09-03T07:46:40;16.50;99.90
37268;DHT22;23154;52.542;13.362;2022-09-03T07:49:07;16.60;99.90
37268;DHT22;23154;52.542;13.362;2022-09-03T07:51:35;16.60;99.90
37268;DHT22;23154;52.542;13.362;2022-09-03T07:54:04;16.80;99.90
37268;DHT22;23154;52.542;13.362;2022-09-03T07:56:32;16.80;99.90
37268;DHT22;23154;52.542;13.362;2022-09-03T07:58:59;16.80;99.90
37268;DHT22;23154;52.542;13.362;2022-09-03T08:01:27;16.80;99.90
37268;DHT22;23154;52.542;13.362;2022-09-03T08:03:53;17.10;99.90
37268;DHT22;23154;52.542;13.362;2022-09-03T08:06:21;17.00;99.90
37268;DHT22;23154;52.542;13.362;2022-09-03T08:08:47;17.20;99.90
37268;DHT22;23154;52.542;13.362;2022-09-03T08:11:18;17.50;99.90
37268;DHT22;23154;52.542;13.362;2022-09-03T08:13:47;18.00;99.90
37268;DHT22;23154;52.542;13.362;2022-09-03T08:16:17;18.10;99.90
37268;DHT22;23154;52.542;13.362;2022-09-03T08:18:43;18.30;99.90
37268;DHT22;23154;52.542;13.362;2022-09-03T08:21:10;18.40;99.90
37268;DHT22;23154;52.542;13.362;2022-09-03T08:23:40;18.40;99.90
37268;DHT22;23154;52.542;13.362;2022-09-03T08:26:06;18.30;99.90
37268;DHT22;23154;52.542;13.362;2022-09-03T08:28:34;17.90;99.90
37268;DHT22;23154;52.542;13.362;2022-09-03T08:31:14;17.90;99.90
37268;DHT22;23154;52.542;13.362;2022-09-03T08:33:45;18.10;99.90
37268;DHT22;23154;52.542;13.362;2022-09-03T08:38:39;18.20;99.90
37268;DHT22;23154;52.542;13.362;2022-09-03T08:41:09;18.20;99.90
37268;DHT22;23154;52.542;13.362;2022-09-03T08:46:47;17.80;99.90
37268;DHT22;23154;52.542;13.362;2022-09-03T08:49:23;17.60;99.90
37268;DHT22;23154;52.542;13.362;2022-09-03T08:51:51;17.40;99.90
37268;DHT22;23154;52.542;13.362;2022-09-03T08:54:19;17.50;99.90
37268;DHT22;23154;52.542;13.362;2022-09-03T08:56:47;17.60;99.90
37268;DHT22;23154;52.542;13.362;2022-09-03T08:59:13;17.70;99.90
37268;DHT22;23154;52.542;13.362;2022-09-03T09:02:03;17.80;99.90
37268;DHT22;23154;52.542;13.362;2022-09-03T09:05:03;17.80;99.90
37268;DHT22;23154;52.542;13.362;2022-09-03T09:10:28;18.10;99.90
37268;DHT22;23154;52.542;13.362;2022-09-03T09:13:05;18.10;99.90
37268;DHT22;23154;52.542;13.362;2022-09-03T09:21:28;18.40;99.90
37268;DHT22;23154;52.542;13.362;2022-09-03T09:24:00;18.40;99.90
37268;DHT22;23154;52.542;13.362;2022-09-03T09:26:28;18.50;99.90
37268;DHT22;23154;52.542;13.362;2022-09-03T09:28:57;18.60;99.90
37268;DHT22;23154;52.542;13.362;2022-09-03T09:31:24;18.70;99.90
37268;DHT22;23154;52.542;13.362;2022-09-03T09:33:50;18.70;99.90
37268;DHT22;23154;52.542;13.362;2022-09-03T09:36:17;18.80;99.90
37268;DHT22;23154;52.542;13.362;2022-09-03T09:38:44;18.80;99.90
37268;DHT22;23154;52.542;13.362;2022-09-03T09:41:15;18.90;99.90
37268;DHT22;23154;52.542;13.362;2022-09-03T09:43:42;18.80;99.90
37268;DHT22;23154;52.542;13.362;2022-09-03T09:46:13;19.00;99.90
37268;DHT22;23154;52.542;13.362;2022-09-03T09:48:49;19.10;98.60
37268;DHT22;23154;52.542;13.362;2022-09-03T09:51:25;19.30;97.90
37268;DHT22;23154;52.542;13.362;2022-09-03T09:54:14;19.40;97.20
37268;DHT22;23154;52.542;13.362;2022-09-03T09:56:42;19.30;96.20
37268;DHT22;23154;52.542;13.362;2022-09-03T09:59:10;19.40;96.40
37268;DHT22;23154;52.542;13.362;2022-09-03T10:01:38;19.60;96.40
37268;DHT22;23154;52.542;13.362;2022-09-03T10:04:25;19.60;96.30
37268;DHT22;23154;52.542;13.362;2022-09-03T10:06:54;19.60;95.00
37268;DHT22;23154;52.542;13.362;2022-09-03T10:09:29;19.80;95.10
37268;DHT22;23154;52.542;13.362;2022-09-03T10:14:43;19.80;93.10
37268;DHT22;23154;52.542;13.362;2022-09-03T10:17:20;19.90;93.10
37268;DHT22;23154;52.542;13.362;2022-09-03T10:22:44;20.00;91.00
37268;DHT22;23154;52.542;13.362;2022-09-03T10:25:14;20.10;91.70
37268;DHT22;23154;52.542;13.362;2022-09-03T10:27:41;20.10;90.20
37268;DHT22;23154;52.542;13.362;2022-09-03T10:30:09;20.10;88.00
37268;DHT22;23154;52.542;13.362;2022-09-03T10:40:41;20.50;84.10
37268;DHT22;23154;52.542;13.362;2022-09-03T10:49:09;20.50;83.30
37268;DHT22;23154;52.542;13.362;2022-09-03T10:51:42;20.60;81.80
37268;DHT22;23154;52.542;13.362;2022-09-03T10:54:44;20.60;82.40
37268;DHT22;23154;52.542;13.362;2022-09-03T11:00:03;21.00;81.60
37268;DHT22;23154;52.542;13.362;2022-09-03T11:03:19;21.10;81.10
37268;DHT22;23154;52.542;13.362;2022-09-03T11:08:29;21.20;81.20
37268;DHT22;23154;52.542;13.362;2022-09-03T11:13:57;21.10;82.60
37268;DHT22;23154;52.542;13.362;2022-09-03T11:16:25;21.40;81.50
37268;DHT22;23154;52.542;13.362;2022-09-03T11:18:56;21.50;81.10
37268;DHT22;23154;52.542;13.362;2022-09-03T11:21:25;21.50;81.00
37268;DHT22;23154;52.542;13.362;2022-09-03T11:24:16;21.40;81.60
37268;DHT22;23154;52.542;13.362;2022-09-03T11:26:46;21.40;80.80
37268;DHT22;23154;52.542;13.362;2022-09-03T11:29:37;21.70;80.30
37268;DHT22;23154;52.542;13.362;2022-09-03T11:32:19;22.20;79.70
37268;DHT22;23154;52.542;13.362;2022-09-03T11:34:51;22.50;77.30
37268;DHT22;23154;52.542;13.362;2022-09-03T11:37:27;22.40;76.30
37268;DHT22;23154;52.542;13.362;2022-09-03T11:40:06;22.40;76.00
37268;DHT22;23154;52.542;13.362;2022-09-03T11:42:39;21.90;76.00
37268;DHT22;23154;52.542;13.362;2022-09-03T11:47:42;22.30;76.20
37268;DHT22;23154;52.542;13.362;2022-09-03T11:50:19;22.20;76.00
37268;DHT22;23154;52.542;13.362;2022-09-03T11:52:46;22.10;75.80
37268;DHT22;23154;52.542;13.362;2022-09-03T11:55:27;22.10;75.30
37268;DHT22;23154;52.542;13.362;2022-09-03T11:57:56;22.50;74.80
37268;DHT22;23154;52.542;13.362;2022-09-03T12:00:22;22.30;75.20
37268;DHT22;23154;52.542;13.362;2022-09-03T12:02:55;22.00;76.40
37268;DHT22;23154;52.542;13.362;2022-09-03T12:10:58;21.40;77.60
37268;DHT22;23154;52.542;13.362;2022-09-03T12:18:48;22.10;76.20
37268;DHT22;23154;52.542;13.362;2022-09-03T12:21:18;22.20;75.30
37268;DHT22;23154;52.542;13.362;2022-09-03T12:23:50;22.10;75.50
37268;DHT22;23154;52.542;13.362;2022-09-03T12:26:23;21.80;75.00
37268;DHT22;23154;52.542;13.362;2022-09-03T12:28:56;21.80;75.00
37268;DHT22;23154;52.542;13.362;2022-09-03T12:31:24;21.80;73.20
37268;DHT22;23154;52.542;13.362;2022-09-03T12:34:09;22.00;73.70
37268;DHT22;23154;52.542;13.362;2022-09-03T12:36:41;22.10;72.70
37268;DHT22;23154;52.542;13.362;2022-09-03T12:39:16;22.30;73.10
37268;DHT22;23154;52.542;13.362;2022-09-03T12:42:06;22.30;72.60
37268;DHT22;23154;52.542;13.362;2022-09-03T12:44:38;22.00;72.90
37268;DHT22;23154;52.542;13.362;2022-09-03T12:47:14;22.20;71.70
37268;DHT22;23154;52.542;13.362;2022-09-03T12:49:55;22.30;71.70
37268;DHT22;23154;52.542;13.362;2022-09-03T12:52:28;22.00;73.20
37268;DHT22;23154;52.542;13.362;2022-09-03T12:57:45;22.30;71.20
37268;DHT22;23154;52.542;13.362;2022-09-03T13:00:14;22.30;71.40
37268;DHT22;23154;52.542;13.362;2022-09-03T13:02:58;22.70;71.40
37268;DHT22;23154;52.542;13.362;2022-09-03T13:05:42;23.00;69.90
37268;DHT22;23154;52.542;13.362;2022-09-03T13:08:36;23.00;69.00
37268;DHT22;23154;52.542;13.362;2022-09-03T13:11:00;22.70;68.00
37268;DHT22;23154;52.542;13.362;2022-09-03T13:13:31;22.80;68.70
37268;DHT22;23154;52.542;13.362;2022-09-03T13:16:11;22.60;67.60
37268;DHT22;23154;52.542;13.362;2022-09-03T13:19:05;22.40;68.70
37268;DHT22;23154;52.542;13.362;2022-09-03T13:22:32;22.20;70.00
37268;DHT22;23154;52.542;13.362;2022-09-03T13:25:02;22.00;70.50
37268;DHT22;23154;52.542;13.362;2022-09-03T13:28:02;22.20;70.40
37268;DHT22;23154;52.542;13.362;2022-09-03T13:30:55;22.30;69.40
37268;DHT22;23154;52.542;13.362;2022-09-03T13:33:40;22.50;70.60
37268;DHT22;23154;52.542;13.362;2022-09-03T13:36:14;22.90;69.70
37268;DHT22;23154;52.542;13.362;2022-09-03T13:38:54;23.30;69.60
37268;DHT22;23154;52.542;13.362;2022-09-03T13:41:32;23.30;67.80
37268;DHT22;23154;52.542;13.362;2022-09-03T13:46:56;22.20;69.20
37268;DHT22;23154;52.542;13.362;2022-09-03T13:49:36;22.60;69.40
37268;DHT22;23154;52.542;13.362;2022-09-03T13:55:40;22.90;67.80
37268;DHT22;23154;52.542;13.362;2022-09-03T14:03:53;22.80;68.60
37268;DHT22;23154;52.542;13.362;2022-09-03T14:06:25;22.70;68.60
37268;DHT22;23154;52.542;13.362;2022-09-03T14:11:52;22.80;67.20
37268;DHT22;23154;52.542;13.362;2022-09-03T14:22:51;23.00;67.30
37268;DHT22;23154;52.542;13.362;2022-09-03T14:25:22;23.20;67.80
37268;DHT22;23154;52.542;13.362;2022-09-03T14:27:49;23.30;66.20
37268;DHT22;23154;52.542;13.362;2022-09-03T14:35:30;23.70;65.10
37268;DHT22;23154;52.542;13.362;2022-09-03T14:40:46;23.20;65.60
37268;DHT22;23154;52.542;13.362;2022-09-03T15:05:56;24.20;61.90
37268;DHT22;23154;52.542;13.362;2022-09-03T15:11:18;23.00;65.80
37268;DHT22;23154;52.542;13.362;2022-09-03T15:13:48;23.10;66.80
37268;DHT22;23154;52.542;13.362;2022-09-03T15:16:34;22.60;67.40
37268;DHT22;23154;52.542;13.362;2022-09-03T15:29:46;22.60;67.80
37268;DHT22;23154;52.542;13.362;2022-09-03T15:32:37;22.60;67.80
37268;DHT22;23154;52.542;13.362;2022-09-03T15:37:54;23.40;64.40
37268;DHT22;23154;52.542;13.362;2022-09-03T15:40:28;23.70;64.20
37268;DHT22;23154;52.542;13.362;2022-09-03T15:43:24;24.00;63.40
37268;DHT22;23154;52.542;13.362;2022-09-03T15:45:54;23.90;62.20
37268;DHT22;23154;52.542;13.362;2022-09-03T15:51:24;24.00;63.30
37268;DHT22;23154;52.542;13.362;2022-09-03T15:56:52;23.10;64.60
37268;DHT22;23154;52.542;13.362;2022-09-03T16:03:13;23.30;64.50
37268;DHT22;23154;52.542;13.362;2022-09-03T16:05:20;22.70;66.00
37268;DHT22;23154;52.542;13.362;2022-09-03T16:07:53;22.60;66.70
37268;DHT22;23154;52.542;13.362;2022-09-03T16:10:38;22.60;66.70
37268;DHT22;23154;52.542;13.362;2022-09-03T16:16:05;22.70;67.10
37268;DHT22;23154;52.542;13.362;2022-09-03T16:18:51;22.70;66.70
37268;DHT22;23154;52.542;13.362;2022-09-03T16:24:15;22.80;66.50
37268;DHT22;23154;52.542;13.362;2022-09-03T16:26:46;22.90;67.50
37268;DHT22;23154;52.542;13.362;2022-09-03T16:29:15;22.70;67.50
37268;DHT22;23154;52.542;13.362;2022-09-03T16:32:06;22.20;67.90
37268;DHT22;23154;52.542;13.362;2022-09-03T16:34:42;22.00;69.00
37268;DHT22;23154;52.542;13.362;2022-09-03T16:37:30;21.80;69.60
37268;DHT22;23154;52.542;13.362;2022-09-03T16:40:34;21.70;70.90
37268;DHT22;23154;52.542;13.362;2022-09-03T16:43:42;21.70;71.00
37268;DHT22;23154;52.542;13.362;2022-09-03T16:46:41;21.70;70.50
37268;DHT22;23154;52.542;13.362;2022-09-03T16:52:52;21.60;71.20
37268;DHT22;23154;52.542;13.362;2022-09-03T16:55:23;21.50;71.00
37268;DHT22;23154;52.542;13.362;2022-09-03T17:01:11;21.70;71.00
37268;DHT22;23154;52.542;13.362;2022-09-03T17:14:36;21.80;70.80
37268;DHT22;23154;52.542;13.362;2022-09-03T17:22:44;21.90;70.60
37268;DHT22;23154;52.542;13.362;2022-09-03T17:25:35;21.50;71.30
37268;DHT22;23154;52.542;13.362;2022-09-03T17:52:37;20.00;77.70
37268;DHT22;23154;52.542;13.362;2022-09-03T17:57:53;19.90;79.10
37268;DHT22;23154;52.542;13.362;2022-09-03T18:00:36;19.80;78.70
37268;DHT22;23154;52.542;13.362;2022-09-03T18:03:18;19.70;78.80
37268;DHT22;23154;52.542;13.362;2022-09-03T18:05:51;19.60;78.90
37268;DHT22;23154;52.542;13.362;2022-09-03T18:08:32;19.60;79.30
37268;DHT22;23154;52.542;13.362;2022-09-03T18:11:09;19.50;79.50
37268;DHT22;23154;52.542;13.362;2022-09-03T18:13:47;19.50;79.40
37268;DHT22;23154;52.542;13.362;2022-09-03T18:16:28;19.30;80.10
37268;DHT22;23154;52.542;13.362;2022-09-03T18:19:17;19.20;80.40
37268;DHT22;23154;52.542;13.362;2022-09-03T18:22:00;19.20;80.90
37268;DHT22;23154;52.542;13.362;2022-09-03T18:24:54;19.20;80.80
37268;DHT22;23154;52.542;13.362;2022-09-03T18:30:26;19.30;81.00
37268;DHT22;23154;52.542;13.362;2022-09-03T18:33:09;19.30;81.20
37268;DHT22;23154;52.542;13.362;2022-09-03T18:35:54;19.40;80.60
37268;DHT22;23154;52.542;13.362;2022-09-03T18:38:41;19.30;80.40
37268;DHT22;23154;52.542;13.362;2022-09-03T18:56:49;19.40;80.40
37268;DHT22;23154;52.542;13.362;2022-09-03T19:15:36;19.10;82.10
37268;DHT22;23154;52.542;13.362;2022-09-03T19:18:26;19.00;81.70
37268;DHT22;23154;52.542;13.362;2022-09-03T19:21:27;19.00;82.10
37268;DHT22;23154;52.542;13.362;2022-09-03T19:24:13;19.00;82.20
37268;DHT22;23154;52.542;13.362;2022-09-03T19:27:01;19.00;82.90
37268;DHT22;23154;52.542;13.362;2022-09-03T19:30:23;19.00;82.30
37268;DHT22;23154;52.542;13.362;2022-09-03T19:45:42;18.60;84.10
37268;DHT22;23154;52.542;13.362;2022-09-03T19:51:52;18.50;84.70
37268;DHT22;23154;52.542;13.362;2022-09-03T19:54:40;18.60;84.80
37268;DHT22;23154;52.542;13.362;2022-09-03T19:57:26;18.60;84.60
37268;DHT22;23154;52.542;13.362;2022-09-03T20:00:12;18.60;84.70
37268;DHT22;23154;52.542;13.362;2022-09-03T20:02:57;18.60;84.60
37268;DHT22;23154;52.542;13.362;2022-09-03T20:05:42;18.60;85.20
37268;DHT22;23154;52.542;13.362;2022-09-03T20:08:27;18.60;85.50
37268;DHT22;23154;52.542;13.362;2022-09-03T20:11:17;18.50;85.30
37268;DHT22;23154;52.542;13.362;2022-09-03T20:13:45;18.50;85.90
37268;DHT22;23154;52.542;13.362;2022-09-03T20:20:21;18.60;85.30
37268;DHT22;23154;52.542;13.362;2022-09-03T20:30:29;18.50;85.70
37268;DHT22;23154;52.542;13.362;2022-09-03T20:47:41;18.30;86.60
37268;DHT22;23154;52.542;13.362;2022-09-03T20:50:45;18.30;86.90
37268;DHT22;23154;52.542;13.362;2022-09-03T20:55:45;18.20;86.70
37268;DHT22;23154;52.542;13.362;2022-09-03T21:01:16;18.10;87.10
37268;DHT22;23154;52.542;13.362;2022-09-03T21:03:58;18.10;87.60
37268;DHT22;23154;52.542;13.362;2022-09-03T21:06:35;18.00;87.60
37268;DHT22;23154;52.542;13.362;2022-09-03T21:12:22;18.00;87.90
37268;DHT22;23154;52.542;13.362;2022-09-03T21:17:57;18.00;87.80
37268;DHT22;23154;52.542;13.362;2022-09-03T21:20:45;18.10;87.90
37268;DHT22;23154;52.542;13.362;2022-09-03T21:26:00;18.00;87.60